Terminal Aerodrome Forecast
Issued by NWS Sioux Falls, SD

Home | Current Version | Previous Version | Graphics & Text | Print | Product List | Glossary Off
Versions: 1 2 3 4 5 6 7 8 9 10 11 12 13 14 15 16 17

000
FTUS43 KFSD 210520
TAFHON
TAF
KHON 210520Z 2106/2206 VRB03KT P6SM SCT050 BKN080
     FM211200 36008KT P6SM -SN OVC045
     FM211500 01007KT 3SM -SN OVC025
     FM211800 36010KT 5SM -SNRA OVC030
     FM212300 01013KT 3SM -SN OVC020
     FM220000 36012KT 2SM -SN OVC020=

USA.gov is the U.S. government's official web portal to all federal, state and local government web resources and services.